createdAt,value
2018-04-23T00:00:14.927Z,99718
2018-04-23T00:02:41.020Z,99726
2018-04-23T00:05:07.843Z,99723
2018-04-23T00:07:33.951Z,99722
2018-04-23T00:13:06.681Z,99727
2018-04-23T00:15:32.769Z,99734
2018-04-23T00:17:58.846Z,99746
2018-04-23T00:20:25.663Z,99771
2018-04-23T00:22:51.746Z,99780
2018-04-23T00:25:17.819Z,99748
2018-04-23T00:27:43.899Z,99756
2018-04-23T00:30:09.968Z,99765
2018-04-23T00:32:36.053Z,99738
2018-04-23T00:35:02.126Z,99747
2018-04-23T00:37:28.942Z,99718
2018-04-23T00:39:55.005Z,99729
2018-04-23T00:42:21.837Z,99733
2018-04-23T00:44:48.645Z,99731
2018-04-23T00:47:14.729Z,99728
2018-04-23T00:49:40.799Z,99736
2018-04-23T00:52:06.887Z,99738
2018-04-23T00:54:32.965Z,99739
2018-04-23T00:56:59.053Z,99743
2018-04-23T00:59:25.134Z,99739
2018-04-23T01:01:51.945Z,99739
2018-04-23T01:04:18.026Z,99730
2018-04-23T01:06:44.093Z,99713
2018-04-23T01:09:10.166Z,99719
2018-04-23T01:11:36.970Z,99711
2018-04-23T01:14:03.046Z,99709
2018-04-23T01:16:29.105Z,99708
2018-04-23T01:18:55.179Z,99700
2018-04-23T01:21:21.981Z,99701
2018-04-23T01:23:48.053Z,99693
2018-04-23T01:26:14.865Z,99705
2018-04-23T01:28:41.621Z,99702
2018-04-23T01:31:08.425Z,99708
2018-04-23T01:33:34.501Z,99713
2018-04-23T01:36:01.329Z,99713
2018-04-23T01:38:28.155Z,99710
2018-04-23T01:40:54.236Z,99711
2018-04-23T01:43:20.306Z,99712
2018-04-23T01:45:46.397Z,99715
2018-04-23T01:48:12.464Z,99716
2018-04-23T01:50:38.538Z,99724
2018-04-23T01:53:04.633Z,99726
2018-04-23T01:55:31.456Z,99720
2018-04-23T01:57:57.534Z,99715
2018-04-23T02:00:23.626Z,99715
2018-04-23T02:02:50.461Z,99712
2018-04-23T02:05:17.289Z,99706
2018-04-23T02:07:43.382Z,99712
2018-04-23T02:10:09.469Z,99711
2018-04-23T02:12:36.281Z,99700
2018-04-23T02:15:02.354Z,99693
2018-04-23T02:17:28.444Z,99693
2018-04-23T02:19:55.260Z,99690
2018-04-23T02:22:21.351Z,99684
2018-04-23T02:24:47.479Z,99688
2018-04-23T02:27:14.274Z,99679
2018-04-23T02:29:40.352Z,99684
2018-04-23T02:32:06.449Z,99680
2018-04-23T02:34:32.538Z,99673
2018-04-23T02:36:58.642Z,99674
2018-04-23T02:39:24.730Z,99666
2018-04-23T02:41:50.829Z,99671
2018-04-23T02:44:16.937Z,99663
2018-04-23T02:46:43.777Z,99657
2018-04-23T02:49:09.884Z,99659
2018-04-23T02:51:35.991Z,99661
2018-04-23T02:54:02.083Z,99670
2018-04-23T02:56:28.913Z,99663
2018-04-23T02:58:55.001Z,99673
2018-04-23T03:01:21.085Z,99661
2018-04-23T03:03:47.905Z,99668
2018-04-23T03:06:13.981Z,99665
2018-04-23T03:08:40.073Z,99662
2018-04-23T03:11:06.894Z,99660
2018-04-23T03:13:32.998Z,99654
2018-04-23T03:15:59.080Z,99657
2018-04-23T03:18:25.178Z,99646
2018-04-23T03:20:51.261Z,99659
2018-04-23T03:23:17.345Z,99664
2018-04-23T03:25:44.166Z,99652
2018-04-23T03:28:10.264Z,99660
2018-04-23T03:30:36.352Z,99656
2018-04-23T03:33:02.441Z,99659
2018-04-23T03:35:28.525Z,99650
2018-04-23T03:37:54.606Z,99659
2018-04-23T03:40:20.699Z,99655
2018-04-23T03:42:46.792Z,99658
2018-04-23T03:45:12.880Z,99658
2018-04-23T03:47:39.706Z,99665
2018-04-23T03:50:05.799Z,99655
2018-04-23T03:52:31.901Z,99656
2018-04-23T03:54:57.989Z,99648
2018-04-23T03:57:24.069Z,99655
2018-04-23T03:59:50.161Z,99654
2018-04-23T04:02:16.988Z,99658
2018-04-23T04:04:43.082Z,99661
2018-04-23T04:07:09.178Z,99668
2018-04-23T04:09:35.301Z,99667
2018-04-23T04:12:20.206Z,99657
2018-04-23T04:15:05.151Z,99661
2018-04-23T04:20:27.144Z,99667
2018-04-23T04:22:53.222Z,99660
2018-04-23T04:25:19.300Z,99663
2018-04-23T04:27:45.380Z,99661
2018-04-23T04:30:11.454Z,99656
2018-04-23T04:32:37.545Z,99666
2018-04-23T04:35:03.629Z,99677
2018-04-23T04:37:29.718Z,99670
2018-04-23T04:39:55.810Z,99677
2018-04-23T04:42:21.899Z,99671
2018-04-23T04:44:48.721Z,99667
2018-04-23T04:47:14.816Z,99677
2018-04-23T04:49:40.910Z,99677
2018-04-23T04:52:06.994Z,99675
2018-04-23T04:54:33.079Z,99686
2018-04-23T04:56:59.157Z,99683
2018-04-23T04:59:25.981Z,99681
2018-04-23T05:01:52.062Z,99693
2018-04-23T05:04:18.159Z,99686
2018-04-23T05:06:44.986Z,99687
2018-04-23T05:09:11.077Z,99696
2018-04-23T05:11:37.149Z,99688
2018-04-23T05:14:03.981Z,99698
2018-04-23T05:16:30.097Z,99693
2018-04-23T05:18:56.971Z,99701
2018-04-23T05:21:23.065Z,99710
2018-04-23T05:23:49.194Z,99714
2018-04-23T05:26:15.254Z,99714
2018-04-23T05:28:41.346Z,99714
2018-04-23T05:31:07.438Z,99723
2018-04-23T05:33:33.522Z,99718
2018-04-23T05:36:00.367Z,99727
2018-04-23T05:38:27.189Z,99729
2018-04-23T05:40:53.437Z,99714
2018-04-23T05:43:20.261Z,99727
2018-04-23T05:45:47.097Z,99712
2018-04-23T05:48:13.177Z,99724
2018-04-23T05:50:39.269Z,99713
2018-04-23T05:53:26.907Z,99698
2018-04-23T05:55:52.981Z,99709
2018-04-23T06:01:34.715Z,99720
2018-04-23T06:04:08.069Z,99729
2018-04-23T06:06:44.750Z,99734
2018-04-23T06:12:14.933Z,99732
2018-04-23T06:14:41.741Z,99727
2018-04-23T06:17:07.812Z,99725
2018-04-23T06:19:39.292Z,99728
2018-04-23T06:22:06.074Z,99723
2018-04-23T06:24:32.153Z,99722
2018-04-23T06:26:58.221Z,99727
2018-04-23T06:29:27.551Z,99731
2018-04-23T06:31:54.377Z,99720
2018-04-23T06:34:20.466Z,99725
2018-04-23T06:36:47.350Z,99727
2018-04-23T06:39:13.426Z,99722
2018-04-23T06:41:39.517Z,99736
2018-04-23T06:44:06.325Z,99746
2018-04-23T06:46:32.398Z,99760
2018-04-23T06:48:58.818Z,99752
2018-04-23T06:51:25.629Z,99767
2018-04-23T06:53:52.258Z,99772
2018-04-23T06:56:18.341Z,99778
2018-04-23T06:58:48.641Z,99794
2018-04-23T07:01:15.461Z,99783
2018-04-23T07:03:45.782Z,99788
2018-04-23T07:06:11.855Z,99782
2018-04-23T07:08:38.664Z,99784
2018-04-23T07:11:04.739Z,99797
2018-04-23T07:13:30.822Z,99787
2018-04-23T07:15:56.890Z,99788
2018-04-23T07:18:22.966Z,99802
2018-04-23T07:20:49.030Z,99806
2018-04-23T07:23:15.785Z,99800
2018-04-23T07:25:41.849Z,99800
2018-04-23T07:28:07.914Z,99813
2018-04-23T07:30:33.997Z,99826
2018-04-23T07:33:00.065Z,99840
2018-04-23T07:35:26.150Z,99845
2018-04-23T07:37:52.228Z,99837
2018-04-23T07:40:18.297Z,99842
2018-04-23T07:42:45.331Z,99832
2018-04-23T07:45:11.418Z,99822
2018-04-23T07:47:37.481Z,99811
2018-04-23T07:50:03.554Z,99829
2018-04-23T07:52:30.388Z,99827
2018-04-23T07:54:57.226Z,99820
2018-04-23T07:57:24.049Z,99807
2018-04-23T07:59:50.165Z,99791
2018-04-23T08:02:16.249Z,99794
2018-04-23T08:04:42.334Z,99800
2018-04-23T08:07:08.431Z,99797
2018-04-23T08:09:34.530Z,99798
2018-04-23T08:12:00.625Z,99802
2018-04-23T08:14:27.441Z,99793
2018-04-23T08:16:53.529Z,99796
2018-04-23T08:19:19.605Z,99819
2018-04-23T08:21:46.426Z,99806
2018-04-23T08:24:12.509Z,99821
2018-04-23T08:26:38.610Z,99825
2018-04-23T08:29:05.434Z,99817
2018-04-23T08:31:31.522Z,99825
2018-04-23T08:33:57.609Z,99826
2018-04-23T08:36:24.973Z,99835
2018-04-23T08:38:51.807Z,99827
2018-04-23T08:41:18.634Z,99822
2018-04-23T08:43:44.749Z,99836
2018-04-23T08:46:10.830Z,99841
2018-04-23T08:48:36.928Z,99850
2018-04-23T08:51:03.757Z,99844
2018-04-23T08:53:29.866Z,99857
2018-04-23T08:55:55.985Z,99847
2018-04-23T08:58:22.054Z,99854
2018-04-23T09:00:48.892Z,99858
2018-04-23T09:03:15.721Z,99860
2018-04-23T09:05:41.801Z,99857
2018-04-23T09:08:07.888Z,99868
2018-04-23T09:10:34.724Z,99862
2018-04-23T09:13:01.559Z,99856
2018-04-23T09:15:27.650Z,99856
2018-04-23T09:17:55.151Z,99851
2018-04-23T09:20:21.986Z,99867
2018-04-23T09:22:48.075Z,99861
2018-04-23T09:25:14.164Z,99867
2018-04-23T09:27:40.251Z,99866
2018-04-23T09:30:06.345Z,99868
2018-04-23T09:32:32.446Z,99866
2018-04-23T09:34:58.533Z,99868
2018-04-23T09:37:24.623Z,99871
2018-04-23T09:39:50.701Z,99865
2018-04-23T09:42:16.786Z,99873
2018-04-23T09:44:42.927Z,99868
2018-04-23T09:47:08.981Z,99868
2018-04-23T09:49:35.817Z,99868
2018-04-23T09:52:02.641Z,99878
2018-04-23T09:54:28.762Z,99876
2018-04-23T09:56:54.845Z,99878
2018-04-23T09:59:20.930Z,99874
2018-04-23T10:01:50.001Z,99868
2018-04-23T10:04:19.950Z,99867
2018-04-23T10:06:46.790Z,99863
2018-04-23T10:09:13.637Z,99873
2018-04-23T10:11:40.473Z,99873
2018-04-23T10:14:06.555Z,99876
2018-04-23T10:16:32.687Z,99873
2018-04-23T10:18:58.746Z,99879
2018-04-23T10:21:24.830Z,99872
2018-04-23T10:23:50.905Z,99865
2018-04-23T10:26:17.737Z,99865
2018-04-23T10:28:43.823Z,99863
2018-04-23T10:31:09.926Z,99872
2018-04-23T10:33:36.014Z,99870
2018-04-23T10:36:02.090Z,99872
2018-04-23T10:38:28.179Z,99860
2018-04-23T10:40:55.013Z,99865
2018-04-23T10:43:21.110Z,99860
2018-04-23T10:45:47.186Z,99856
2018-04-23T10:48:13.997Z,99859
2018-04-23T10:50:40.077Z,99852
2018-04-23T10:53:06.176Z,99857
2018-04-23T10:55:32.998Z,99854
2018-04-23T10:57:59.083Z,99837
2018-04-23T11:00:25.168Z,99844
2018-04-23T11:02:51.993Z,99834
2018-04-23T11:05:18.080Z,99834
2018-04-23T11:07:44.169Z,99823
2018-04-23T11:10:10.250Z,99819
2018-04-23T11:12:36.361Z,99812
2018-04-23T11:15:02.433Z,99819
2018-04-23T11:17:29.253Z,99826
2018-04-23T11:19:56.829Z,99824
2018-04-23T11:22:23.650Z,99826
2018-04-23T11:24:49.775Z,99832
2018-04-23T11:27:15.827Z,99836
2018-04-23T11:29:42.658Z,99852
2018-04-23T11:32:08.733Z,99860
2018-04-23T11:34:34.826Z,99867
2018-04-23T11:37:01.642Z,99875
2018-04-23T11:39:27.738Z,99851
2018-04-23T11:41:53.834Z,99852
2018-04-23T11:44:19.917Z,99841
2018-04-23T11:46:45.998Z,99836
2018-04-23T11:49:12.093Z,99840
2018-04-23T11:51:38.932Z,99847
2018-04-23T11:54:05.777Z,99856
2018-04-23T11:56:32.605Z,99869
2018-04-23T11:58:58.681Z,99860
2018-04-23T12:01:24.778Z,99871
2018-04-23T12:03:51.598Z,99871
2018-04-23T12:06:17.690Z,99877
2018-04-23T12:08:43.779Z,99876
2018-04-23T12:11:09.878Z,99877
2018-04-23T12:13:35.993Z,99870
2018-04-23T12:16:02.060Z,99861
2018-04-23T12:18:29.042Z,99870
2018-04-23T12:20:55.133Z,99880
2018-04-23T12:23:21.214Z,99869
2018-04-23T12:25:48.057Z,99855
2018-04-23T12:28:14.142Z,99860
2018-04-23T12:30:40.276Z,99857
2018-04-23T12:33:06.335Z,99864
2018-04-23T12:35:32.416Z,99857
2018-04-23T12:37:58.509Z,99853
2018-04-23T12:40:25.337Z,99854
2018-04-23T12:42:51.429Z,99850
2018-04-23T12:45:17.518Z,99848
2018-04-23T12:47:43.613Z,99849
2018-04-23T12:50:09.690Z,99850
2018-04-23T12:52:35.785Z,99840
2018-04-23T12:55:02.610Z,99841
2018-04-23T12:57:28.698Z,99828
2018-04-23T12:59:55.631Z,99832
2018-04-23T13:02:21.737Z,99829
2018-04-23T13:04:47.822Z,99819
2018-04-23T13:07:13.921Z,99818
2018-04-23T13:09:40.010Z,99821
2018-04-23T13:12:06.098Z,99805
2018-04-23T13:14:32.190Z,99801
2018-04-23T13:16:58.273Z,99794
2018-04-23T13:19:25.107Z,99798
2018-04-23T13:21:51.937Z,99790
2018-04-23T13:24:29.398Z,99789
2018-04-23T13:26:55.474Z,99791
2018-04-23T13:29:22.313Z,99788
2018-04-23T13:31:49.150Z,99781
2018-04-23T13:34:15.253Z,99772
2018-04-23T13:36:42.315Z,99780
2018-04-23T13:39:09.170Z,99775
2018-04-23T13:41:36.003Z,99775
2018-04-23T13:44:02.088Z,99778
2018-04-23T13:46:28.169Z,99769
2018-04-23T13:48:54.994Z,99776
2018-04-23T13:51:21.818Z,99775
2018-04-23T13:53:47.901Z,99777
2018-04-23T13:56:14.009Z,99778
2018-04-23T13:58:40.845Z,99774
2018-04-23T14:01:07.682Z,99780
2018-04-23T14:03:33.766Z,99782
2018-04-23T14:05:59.858Z,99767
2018-04-23T14:08:26.491Z,99755
2018-04-23T14:10:53.322Z,99758
2018-04-23T14:13:20.158Z,99762
2018-04-23T14:15:46.247Z,99762
2018-04-23T14:18:12.334Z,99758
2018-04-23T14:20:38.428Z,99756
2018-04-23T14:23:04.518Z,99753
2018-04-23T14:25:30.618Z,99744
2018-04-23T14:27:56.704Z,99740
2018-04-23T14:30:22.816Z,99742
2018-04-23T14:32:48.898Z,99737
2018-04-23T14:35:14.985Z,99745
2018-04-23T14:37:41.829Z,99740
2018-04-23T14:40:08.670Z,99737
2018-04-23T14:42:34.765Z,99734
2018-04-23T14:45:00.850Z,99727
2018-04-23T14:47:26.943Z,99722
2018-04-23T14:49:53.019Z,99735
2018-04-23T14:52:19.100Z,99767
2018-04-23T14:54:45.188Z,99826
2018-04-23T14:57:11.277Z,99865
2018-04-23T14:59:37.352Z,99902
2018-04-23T15:02:03.433Z,99859
2018-04-23T15:04:29.505Z,99820
2018-04-23T15:06:55.598Z,99807
2018-04-23T15:09:21.685Z,99810
2018-04-23T15:11:48.497Z,99826
2018-04-23T15:14:14.565Z,99812
2018-04-23T15:16:41.382Z,99817
2018-04-23T15:19:07.465Z,99819
2018-04-23T15:21:33.534Z,99801
2018-04-23T15:24:00.190Z,99801
2018-04-23T15:26:27.000Z,99822
2018-04-23T15:28:53.566Z,99832
2018-04-23T15:31:20.385Z,99829
2018-04-23T15:33:46.445Z,99821
2018-04-23T15:36:12.502Z,99828
2018-04-23T15:38:38.582Z,99840
2018-04-23T15:41:05.401Z,99831
2018-04-23T15:43:31.478Z,99826
2018-04-23T15:45:57.544Z,99826
2018-04-23T15:48:23.607Z,99829
2018-04-23T15:50:50.429Z,99821
2018-04-23T15:53:16.505Z,99817
2018-04-23T15:55:42.581Z,99818
2018-04-23T15:58:08.653Z,99805
2018-04-23T16:00:34.785Z,99811
2018-04-23T16:03:00.854Z,99817
2018-04-23T16:05:26.965Z,99813
2018-04-23T16:07:53.042Z,99817
2018-04-23T16:10:19.820Z,99804
2018-04-23T16:12:45.894Z,99818
2018-04-23T16:15:12.725Z,99807
2018-04-23T16:17:38.796Z,99808
2018-04-23T16:20:04.886Z,99804
2018-04-23T16:22:31.701Z,99809
2018-04-23T16:24:57.795Z,99820
2018-04-23T16:27:30.669Z,99829
2018-04-23T16:32:59.441Z,99821
2018-04-23T16:35:26.269Z,99828
2018-04-23T16:41:15.082Z,99838
2018-04-23T16:44:05.781Z,99846
2018-04-23T16:46:31.856Z,99846
2018-04-23T16:49:01.509Z,99859
2018-04-23T16:51:27.598Z,99861
2018-04-23T16:53:54.561Z,99866
2018-04-23T16:56:20.657Z,99862
2018-04-23T16:59:01.242Z,99872
2018-04-23T17:01:27.369Z,99867
2018-04-23T17:03:53.448Z,99873
2018-04-23T17:06:19.526Z,99870
2018-04-23T17:08:45.602Z,99877
2018-04-23T17:11:11.669Z,99879
2018-04-23T17:13:37.745Z,99875
2018-04-23T17:16:03.826Z,99869
2018-04-23T17:18:36.276Z,99873
2018-04-23T17:21:02.353Z,99872
2018-04-23T17:23:28.439Z,99863
2018-04-23T17:26:25.625Z,99881
2018-04-23T17:28:52.490Z,99882
2018-04-23T17:31:18.574Z,99880
2018-04-23T17:33:44.666Z,99883
2018-04-23T17:36:10.761Z,99873
2018-04-23T17:38:36.839Z,99880
2018-04-23T17:41:02.905Z,99882
2018-04-23T17:43:28.997Z,99882
2018-04-23T17:45:55.077Z,99875
2018-04-23T17:48:21.185Z,99873
2018-04-23T17:50:47.266Z,99876
2018-04-23T17:53:13.359Z,99864
2018-04-23T17:55:39.446Z,99871
2018-04-23T17:58:06.274Z,99881
2018-04-23T18:00:33.457Z,99872
2018-04-23T18:02:59.549Z,99876
2018-04-23T18:05:25.634Z,99873
2018-04-23T18:07:51.726Z,99877
2018-04-23T18:10:18.562Z,99884
2018-04-23T18:12:45.399Z,99891
2018-04-23T18:15:14.312Z,99889
2018-04-23T18:20:59.078Z,99902
2018-04-23T18:23:25.909Z,99897
2018-04-23T18:26:06.173Z,99913
2018-04-23T18:28:36.953Z,99914
2018-04-23T18:31:03.050Z,99918
2018-04-23T18:33:29.882Z,99922
2018-04-23T18:35:56.721Z,99915
2018-04-23T18:38:23.554Z,99916
2018-04-23T18:40:49.654Z,99921
2018-04-23T18:43:15.752Z,99913
2018-04-23T18:45:43.940Z,99920
2018-04-23T18:48:10.018Z,99916
2018-04-23T18:50:37.496Z,99927
2018-04-23T18:53:03.598Z,99943
2018-04-23T18:55:30.428Z,99938
2018-04-23T18:57:56.520Z,99954
2018-04-23T19:00:22.604Z,99951
2018-04-23T19:02:49.442Z,99966
2018-04-23T19:05:16.283Z,99968
2018-04-23T19:07:43.129Z,99976
2018-04-23T19:10:09.973Z,100000
2018-04-23T19:12:36.821Z,99995
2018-04-23T19:15:03.657Z,99990
2018-04-23T19:17:30.495Z,99989
2018-04-23T19:19:57.326Z,99994
2018-04-23T19:22:23.433Z,99997
2018-04-23T19:24:49.515Z,99998
2018-04-23T19:27:15.606Z,100009
2018-04-23T19:29:41.688Z,100002
2018-04-23T19:32:07.801Z,100005
2018-04-23T19:34:33.901Z,100007
2018-04-23T19:37:00.735Z,100007
2018-04-23T19:39:26.837Z,100013
2018-04-23T19:41:52.929Z,100008
2018-04-23T19:44:19.067Z,100010
2018-04-23T19:50:08.841Z,100011
2018-04-23T19:52:34.960Z,100004
2018-04-23T19:55:01.053Z,99997
2018-04-23T19:57:27.141Z,99983
2018-04-23T19:59:53.240Z,99990
2018-04-23T20:02:19.325Z,99994
2018-04-23T20:04:45.433Z,99995
2018-04-23T20:07:11.538Z,99998
2018-04-23T20:09:37.641Z,99994
2018-04-23T20:12:03.729Z,100003
2018-04-23T20:14:29.860Z,100000
2018-04-23T20:16:55.927Z,100004
2018-04-23T20:19:22.010Z,99999
2018-04-23T20:21:48.078Z,99999
2018-04-23T20:24:14.219Z,99996
2018-04-23T20:26:44.113Z,100003
2018-04-23T20:29:17.250Z,100005
2018-04-23T20:32:00.994Z,100005
2018-04-23T20:34:58.538Z,99998
2018-04-23T20:37:24.622Z,100012
2018-04-23T20:39:50.741Z,100009
2018-04-23T20:42:17.568Z,100010
2018-04-23T20:44:43.641Z,100009
2018-04-23T20:47:28.355Z,100014
2018-04-23T20:49:54.442Z,100015
2018-04-23T20:52:20.539Z,100014
2018-04-23T20:54:46.625Z,100021
2018-04-23T20:57:12.719Z,100028
2018-04-23T20:59:39.390Z,100027
2018-04-23T21:02:05.485Z,100029
2018-04-23T21:04:32.607Z,100029
2018-04-23T21:06:58.698Z,100039
2018-04-23T21:09:25.578Z,100040
2018-04-23T21:11:52.970Z,100036
2018-04-23T21:14:19.066Z,100036
2018-04-23T21:16:45.168Z,100040
2018-04-23T21:19:11.269Z,100036
2018-04-23T21:21:37.366Z,100042
2018-04-23T21:24:04.186Z,100033
2018-04-23T21:26:30.281Z,100046
2018-04-23T21:28:57.085Z,100042
2018-04-23T21:31:23.902Z,100055
2018-04-23T21:33:49.979Z,100050
2018-04-23T21:36:16.056Z,100054
2018-04-23T21:38:42.153Z,100046
2018-04-23T21:41:08.958Z,100056
2018-04-23T21:43:35.044Z,100062
2018-04-23T21:46:01.111Z,100066
2018-04-23T21:48:27.194Z,100063
2018-04-23T21:50:53.261Z,100056
2018-04-23T21:53:19.428Z,100055
2018-04-23T21:55:45.518Z,100057
2018-04-23T21:58:11.619Z,100066
2018-04-23T22:00:37.698Z,100069
2018-04-23T22:03:04.541Z,100076
2018-04-23T22:05:30.633Z,100073
2018-04-23T22:08:02.977Z,100074
2018-04-23T22:10:30.824Z,100066
2018-04-23T22:13:03.615Z,100070
2018-04-23T22:15:29.637Z,100069
2018-04-23T22:17:55.729Z,100078
2018-04-23T22:20:22.557Z,100068
2018-04-23T22:22:50.752Z,100065
2018-04-23T22:25:17.588Z,100073
2018-04-23T22:27:45.059Z,100079
2018-04-23T22:30:11.165Z,100073
2018-04-23T22:32:37.981Z,100068
2018-04-23T22:35:04.146Z,100066
2018-04-23T22:37:30.198Z,100068
2018-04-23T22:39:56.289Z,100076
2018-04-23T22:42:23.125Z,100080
2018-04-23T22:44:49.233Z,100078
2018-04-23T22:47:15.316Z,100064
2018-04-23T22:49:41.418Z,100077
2018-04-23T22:52:08.249Z,100065
2018-04-23T22:54:35.086Z,100082
2018-04-23T22:57:01.185Z,100085
2018-04-23T22:59:27.275Z,100080
2018-04-23T23:01:53.361Z,100083
2018-04-23T23:04:19.446Z,100084
2018-04-23T23:06:45.543Z,100079
2018-04-23T23:09:11.621Z,100084
2018-04-23T23:11:37.709Z,100082
2018-04-23T23:14:05.154Z,100088
2018-04-23T23:16:31.234Z,100078
2018-04-23T23:18:57.326Z,100087
2018-04-23T23:21:23.418Z,100082
2018-04-23T23:23:50.246Z,100082
2018-04-23T23:26:17.107Z,100080
2018-04-23T23:28:43.197Z,100081
2018-04-23T23:31:09.281Z,100084
2018-04-23T23:33:35.374Z,100084
2018-04-23T23:36:02.214Z,100086
2018-04-23T23:38:29.053Z,100083
2018-04-23T23:40:55.881Z,100092
2018-04-23T23:43:21.970Z,100090
2018-04-23T23:45:48.053Z,100088
2018-04-23T23:48:14.877Z,100087
2018-04-23T23:50:40.974Z,100092
2018-04-23T23:53:07.094Z,100089
2018-04-23T23:55:33.922Z,100098
2018-04-23T23:58:00.020Z,100094
